THY60R LTFM-EDDH
Flight info
| Callsign | THY60R |
|---|---|
| Flight time | N/A |
| Altitude | 40000 |
| Route | IBLAX P727 BGS L622 GONGO DCT KOMAN DCT NARKA DCT PITOK DCT MAKAL DCT ETUDA DCT HDO DCT SOGMA M748 RARUP RARUP2D |
| Aircraft | A332/H-SDE3GHIJ2J3J5M1RVWXY/LB2D1 |
Departure
| Time | 2026-02-17 14:27 |
|---|---|
| Airport | İstanbul Airport (LTFM) |
Arrival
| Time | N/A |
|---|---|
| Airport | Hamburg Helmut Schmidt Airport (EDDH) |
| Time | Latitude | Longitude | Altitude | Speed | Heading |
|---|---|---|---|---|---|
| 2026-02-17 13:59 | 41.26711 | 28.74725 | 317 ft | 0 kts | 88° |
| 2026-02-17 14:15 | 41.26711 | 28.74723 | 317 ft | 2 kts | 88° |
| 2026-02-17 14:16 | 41.26710 | 28.74702 | 317 ft | 2 kts | 88° |
| 2026-02-17 14:16 | 41.26710 | 28.74681 | 317 ft | 2 kts | 88° |
| 2026-02-17 14:16 | 41.26709 | 28.74659 | 317 ft | 2 kts | 88° |
| 2026-02-17 14:16 | 41.26709 | 28.74638 | 317 ft | 2 kts | 75° |
| 2026-02-17 14:17 | 41.26701 | 28.74619 | 316 ft | 2 kts | 36° |
| 2026-02-17 14:17 | 41.26686 | 28.74611 | 315 ft | 2 kts | 2° |
| 2026-02-17 14:17 | 41.26684 | 28.74611 | 316 ft | 0 kts | 359° |
| 2026-02-17 14:19 | 41.26688 | 28.74610 | 315 ft | 1 kts | 359° |
| 2026-02-17 14:19 | 41.26707 | 28.74610 | 316 ft | 5 kts | 359° |
| 2026-02-17 14:20 | 41.26755 | 28.74609 | 317 ft | 9 kts | 359° |
| 2026-02-17 14:20 | 41.26832 | 28.74608 | 317 ft | 13 kts | 359° |
| 2026-02-17 14:20 | 41.26931 | 28.74606 | 317 ft | 16 kts | 359° |
| 2026-02-17 14:20 | 41.27051 | 28.74604 | 317 ft | 19 kts | 359° |
| 2026-02-17 14:21 | 41.27134 | 28.74638 | 314 ft | 12 kts | 50° |
| 2026-02-17 14:21 | 41.27147 | 28.74749 | 312 ft | 13 kts | 89° |
| 2026-02-17 14:21 | 41.27149 | 28.74876 | 312 ft | 14 kts | 89° |
| 2026-02-17 14:21 | 41.27151 | 28.75010 | 312 ft | 15 kts | 89° |
| 2026-02-17 14:22 | 41.27152 | 28.75158 | 311 ft | 17 kts | 89° |
| 2026-02-17 14:22 | 41.27248 | 28.75367 | 307 ft | 13 kts | 360° |
| 2026-02-17 14:23 | 41.27476 | 28.75364 | 303 ft | 20 kts | 359° |
| 2026-02-17 14:23 | 41.27627 | 28.75362 | 298 ft | 24 kts | 359° |
| 2026-02-17 14:23 | 41.27813 | 28.75359 | 283 ft | 30 kts | 359° |
| 2026-02-17 14:23 | 41.27958 | 28.75357 | 274 ft | 33 kts | 359° |
| 2026-02-17 14:24 | 41.28162 | 28.75354 | 265 ft | 28 kts | 359° |
| 2026-02-17 14:24 | 41.28343 | 28.75352 | 259 ft | 18 kts | 360° |
| 2026-02-17 14:24 | 41.28450 | 28.75368 | 256 ft | 12 kts | 353° |
| 2026-02-17 14:24 | 41.28552 | 28.75351 | 251 ft | 18 kts | 354° |
| 2026-02-17 14:25 | 41.28690 | 28.75348 | 245 ft | 22 kts | 1° |
| 2026-02-17 14:25 | 41.28812 | 28.75421 | 239 ft | 18 kts | 81° |
| 2026-02-17 14:25 | 41.28808 | 28.75575 | 240 ft | 13 kts | 103° |
| 2026-02-17 14:25 | 41.28756 | 28.75623 | 242 ft | 15 kts | 167° |
| 2026-02-17 14:26 | 41.28536 | 28.75661 | 254 ft | 11 kts | 188° |
| 2026-02-17 14:26 | 41.28509 | 28.75654 | 255 ft | 3 kts | 191° |
| 2026-02-17 14:26 | 41.28440 | 28.75643 | 256 ft | 24 kts | 185° |
| 2026-02-17 14:27 | 41.27305 | 28.75654 | 304 ft | 131 kts | 179° |
| 2026-02-17 14:27 | 41.26343 | 28.75630 | 746 ft | 141 kts | 189° |
| 2026-02-17 14:27 | 41.25601 | 28.74774 | 1295 ft | 158 kts | 249° |
| 2026-02-17 14:27 | 41.25846 | 28.73297 | 2017 ft | 178 kts | 297° |
| 2026-02-17 14:28 | 41.26865 | 28.72118 | 2297 ft | 213 kts | 317° |
| 2026-02-17 14:28 | 41.28226 | 28.71129 | 2611 ft | 239 kts | 332° |
| 2026-02-17 14:28 | 41.29882 | 28.70345 | 2922 ft | 265 kts | 336° |
| 2026-02-17 14:28 | 41.31673 | 28.69464 | 3451 ft | 280 kts | 333° |
| 2026-02-17 14:29 | 41.33466 | 28.68408 | 4350 ft | 283 kts | 330° |
| 2026-02-17 14:29 | 41.35262 | 28.67317 | 5289 ft | 285 kts | 330° |
| 2026-02-17 14:29 | 41.37083 | 28.66210 | 6169 ft | 290 kts | 331° |
| 2026-02-17 14:29 | 41.38930 | 28.65088 | 7063 ft | 294 kts | 331° |
| 2026-02-17 14:30 | 41.40802 | 28.63948 | 7980 ft | 298 kts | 331° |
| 2026-02-17 14:30 | 41.42703 | 28.62790 | 8911 ft | 303 kts | 331° |
| 2026-02-17 14:31 | 41.48681 | 28.59130 | 10880 ft | 339 kts | 331° |
| 2026-02-17 14:31 | 41.50852 | 28.57797 | 11453 ft | 351 kts | 332° |
| 2026-02-17 14:31 | 41.53094 | 28.56427 | 12226 ft | 357 kts | 332° |
| 2026-02-17 14:31 | 41.55380 | 28.55033 | 13009 ft | 361 kts | 332° |
| 2026-02-17 14:32 | 41.57661 | 28.53642 | 13753 ft | 365 kts | 332° |
| 2026-02-17 14:32 | 41.59992 | 28.52219 | 14467 ft | 369 kts | 332° |
| 2026-02-17 14:32 | 41.62341 | 28.50781 | 15195 ft | 372 kts | 332° |
| 2026-02-17 14:32 | 41.64695 | 28.49340 | 15910 ft | 375 kts | 332° |
| 2026-02-17 14:33 | 41.67087 | 28.47871 | 16620 ft | 378 kts | 332° |
| 2026-02-17 14:33 | 41.71886 | 28.44920 | 17990 ft | 383 kts | 332° |
| 2026-02-17 14:33 | 41.74334 | 28.43414 | 18620 ft | 385 kts | 332° |
| 2026-02-17 14:34 | 41.76751 | 28.41925 | 19210 ft | 389 kts | 332° |
| 2026-02-17 14:34 | 41.79239 | 28.40389 | 19686 ft | 394 kts | 332° |
| 2026-02-17 14:34 | 41.81747 | 28.38840 | 20268 ft | 397 kts | 332° |
| 2026-02-17 14:35 | 41.86768 | 28.35737 | 21406 ft | 402 kts | 332° |
| 2026-02-17 14:35 | 41.89325 | 28.34155 | 21963 ft | 405 kts | 331° |
| 2026-02-17 14:35 | 41.91899 | 28.32561 | 22516 ft | 408 kts | 331° |
| 2026-02-17 14:35 | 41.94490 | 28.30933 | 23070 ft | 409 kts | 329° |
| 2026-02-17 14:36 | 41.96909 | 28.28969 | 23592 ft | 405 kts | 320° |
| 2026-02-17 14:36 | 41.99037 | 28.26494 | 24034 ft | 402 kts | 309° |
| 2026-02-17 14:36 | 42.00803 | 28.23652 | 24493 ft | 400 kts | 303° |
| 2026-02-17 14:36 | 42.02461 | 28.20618 | 24958 ft | 401 kts | 300° |
| 2026-02-17 14:37 | 42.04023 | 28.17559 | 25402 ft | 402 kts | 299° |
| 2026-02-17 14:37 | 42.05587 | 28.14399 | 25846 ft | 403 kts | 298° |
| 2026-02-17 14:37 | 42.07119 | 28.11278 | 26287 ft | 404 kts | 298° |
| 2026-02-17 14:37 | 42.08679 | 28.08108 | 26725 ft | 406 kts | 298° |
| 2026-02-17 14:38 | 42.10249 | 28.04938 | 27162 ft | 408 kts | 298° |
| 2026-02-17 14:38 | 42.11828 | 28.01767 | 27559 ft | 411 kts | 298° |
| 2026-02-17 14:38 | 42.13436 | 27.98548 | 27853 ft | 415 kts | 298° |
| 2026-02-17 14:39 | 42.16686 | 27.92060 | 28688 ft | 419 kts | 298° |
| 2026-02-17 14:39 | 42.18319 | 27.88799 | 29076 ft | 420 kts | 297° |
| 2026-02-17 14:39 | 42.19954 | 27.85529 | 29474 ft | 422 kts | 297° |
| 2026-02-17 14:39 | 42.21580 | 27.82274 | 29814 ft | 423 kts | 297° |
| 2026-02-17 14:40 | 42.23331 | 27.79031 | 30127 ft | 430 kts | 303° |
| 2026-02-17 14:40 | 42.25418 | 27.76077 | 30367 ft | 442 kts | 311° |
| 2026-02-17 14:40 | 42.30798 | 27.71613 | 30917 ft | 466 kts | 333° |
| 2026-02-17 14:41 | 42.33793 | 27.69977 | 31296 ft | 461 kts | 327° |
| 2026-02-17 14:41 | 42.36597 | 27.67882 | 31552 ft | 459 kts | 323° |
| 2026-02-17 14:41 | 42.39305 | 27.65681 | 31900 ft | 459 kts | 321° |
| 2026-02-17 14:41 | 42.42008 | 27.63402 | 32329 ft | 456 kts | 321° |
| 2026-02-17 14:42 | 42.44672 | 27.61102 | 32753 ft | 455 kts | 320° |
| 2026-02-17 14:42 | 42.47338 | 27.58766 | 33068 ft | 456 kts | 320° |
| 2026-02-17 14:42 | 42.50000 | 27.56416 | 33324 ft | 458 kts | 320° |
| 2026-02-17 14:43 | 42.55332 | 27.51707 | 34072 ft | 454 kts | 320° |
| 2026-02-17 14:43 | 42.57965 | 27.49388 | 34453 ft | 452 kts | 320° |
| 2026-02-17 14:43 | 42.60600 | 27.47064 | 34731 ft | 452 kts | 320° |
| 2026-02-17 14:43 | 42.63253 | 27.44722 | 34964 ft | 453 kts | 320° |
| 2026-02-17 14:44 | 42.65894 | 27.42388 | 35229 ft | 454 kts | 320° |
| 2026-02-17 14:44 | 42.68547 | 27.40041 | 35441 ft | 456 kts | 320° |
| 2026-02-17 14:44 | 42.71207 | 27.37688 | 35658 ft | 456 kts | 321° |
| 2026-02-17 14:44 | 42.73865 | 27.35334 | 35916 ft | 456 kts | 321° |
| 2026-02-17 14:45 | 42.76529 | 27.32973 | 36217 ft | 456 kts | 321° |
| 2026-02-17 14:45 | 42.79147 | 27.30651 | 36465 ft | 456 kts | 321° |
| 2026-02-17 14:45 | 42.81803 | 27.28293 | 36786 ft | 454 kts | 321° |
| 2026-02-17 14:45 | 42.84451 | 27.25939 | 37082 ft | 454 kts | 321° |
| 2026-02-17 14:46 | 42.87086 | 27.23594 | 37368 ft | 453 kts | 321° |
| 2026-02-17 14:46 | 42.89732 | 27.21236 | 37665 ft | 452 kts | 322° |
| 2026-02-17 14:46 | 42.92364 | 27.18888 | 37954 ft | 452 kts | 322° |
| 2026-02-17 14:47 | 42.97625 | 27.14186 | 38381 ft | 451 kts | 322° |
| 2026-02-17 14:47 | 43.00256 | 27.11832 | 38529 ft | 452 kts | 322° |
| 2026-02-17 14:47 | 43.02888 | 27.09474 | 38681 ft | 452 kts | 322° |
| 2026-02-17 14:47 | 43.05518 | 27.07114 | 38833 ft | 453 kts | 322° |
| 2026-02-17 14:48 | 43.08129 | 27.04770 | 38971 ft | 454 kts | 322° |
| 2026-02-17 14:48 | 43.10765 | 27.02397 | 39112 ft | 454 kts | 322° |
| 2026-02-17 14:48 | 43.13412 | 27.00004 | 39277 ft | 454 kts | 322° |
| 2026-02-17 14:48 | 43.16045 | 26.97617 | 39443 ft | 454 kts | 322° |
| 2026-02-17 14:49 | 43.18698 | 26.95205 | 39506 ft | 457 kts | 322° |
| 2026-02-17 14:49 | 43.24005 | 26.90370 | 39506 ft | 464 kts | 322° |
| 2026-02-17 14:50 | 43.29401 | 26.85452 | 39514 ft | 465 kts | 322° |
| 2026-02-17 14:50 | 43.34785 | 26.80538 | 39514 ft | 466 kts | 322° |
| 2026-02-17 14:51 | 43.42871 | 26.73134 | 39516 ft | 466 kts | 322° |
| 2026-02-17 14:51 | 43.48272 | 26.68176 | 39510 ft | 466 kts | 322° |
| 2026-02-17 14:52 | 43.53675 | 26.63204 | 39517 ft | 466 kts | 322° |
| 2026-02-17 14:52 | 43.59070 | 26.58228 | 39517 ft | 466 kts | 322° |
| 2026-02-17 14:53 | 43.64428 | 26.53275 | 39523 ft | 466 kts | 322° |
| 2026-02-17 14:53 | 43.69818 | 26.48282 | 39524 ft | 466 kts | 322° |
| 2026-02-17 14:54 | 43.75209 | 26.43277 | 39520 ft | 466 kts | 322° |
| 2026-02-17 14:55 | 43.83271 | 26.35772 | 39533 ft | 466 kts | 322° |
| 2026-02-17 14:55 | 43.88656 | 26.30745 | 39531 ft | 466 kts | 321° |
| 2026-02-17 14:56 | 43.93999 | 26.25745 | 39539 ft | 466 kts | 321° |
| 2026-02-17 14:56 | 43.99221 | 26.20466 | 39543 ft | 462 kts | 316° |
| 2026-02-17 14:57 | 44.04090 | 26.14648 | 39545 ft | 461 kts | 314° |
| 2026-02-17 14:57 | 44.08890 | 26.08724 | 39553 ft | 461 kts | 314° |
| 2026-02-17 14:58 | 44.13645 | 26.02815 | 39554 ft | 461 kts | 314° |
| 2026-02-17 14:58 | 44.18432 | 25.96869 | 39566 ft | 460 kts | 314° |
| 2026-02-17 14:59 | 44.25608 | 25.87950 | 39567 ft | 460 kts | 314° |
| 2026-02-17 14:59 | 44.30398 | 25.81981 | 39586 ft | 461 kts | 314° |
| 2026-02-17 15:00 | 44.35178 | 25.76011 | 39578 ft | 460 kts | 314° |
| 2026-02-17 15:00 | 44.39948 | 25.70039 | 39578 ft | 460 kts | 314° |
| 2026-02-17 15:01 | 44.44687 | 25.64093 | 39584 ft | 460 kts | 314° |
| 2026-02-17 15:01 | 44.49451 | 25.58101 | 39599 ft | 460 kts | 314° |
| 2026-02-17 15:02 | 44.54213 | 25.52098 | 39585 ft | 460 kts | 314° |
| 2026-02-17 15:03 | 44.61359 | 25.43064 | 39581 ft | 461 kts | 314° |
| 2026-02-17 15:03 | 44.66119 | 25.37030 | 39604 ft | 461 kts | 314° |
| 2026-02-17 15:04 | 44.70838 | 25.31033 | 39608 ft | 461 kts | 314° |
| 2026-02-17 15:04 | 44.75600 | 25.24968 | 39601 ft | 461 kts | 314° |
| 2026-02-17 15:05 | 44.80350 | 25.18904 | 39595 ft | 461 kts | 314° |
| 2026-02-17 15:05 | 44.85069 | 25.12866 | 39597 ft | 461 kts | 314° |
| 2026-02-17 15:06 | 44.89816 | 25.06776 | 39604 ft | 461 kts | 314° |
| 2026-02-17 15:06 | 44.94567 | 25.00668 | 39604 ft | 462 kts | 314° |
| 2026-02-17 15:07 | 45.01677 | 24.91501 | 39605 ft | 462 kts | 313° |
| 2026-02-17 15:07 | 45.06412 | 24.85378 | 39610 ft | 462 kts | 313° |
| 2026-02-17 15:08 | 45.11151 | 24.79237 | 39610 ft | 461 kts | 313° |
| 2026-02-17 15:08 | 45.15882 | 24.73090 | 39606 ft | 461 kts | 313° |
| 2026-02-17 15:09 | 45.20581 | 24.66969 | 39610 ft | 461 kts | 313° |
| 2026-02-17 15:09 | 45.25304 | 24.60805 | 39621 ft | 461 kts | 313° |
| 2026-02-17 15:10 | 45.30007 | 24.54653 | 39616 ft | 458 kts | 313° |
| 2026-02-17 15:11 | 45.37027 | 24.45440 | 39629 ft | 458 kts | 313° |
| 2026-02-17 15:11 | 45.41702 | 24.39285 | 39630 ft | 458 kts | 313° |
| 2026-02-17 15:12 | 45.46347 | 24.33158 | 39631 ft | 457 kts | 313° |
| 2026-02-17 15:12 | 45.51002 | 24.27003 | 39638 ft | 456 kts | 313° |
| 2026-02-17 15:13 | 45.55661 | 24.20827 | 39648 ft | 456 kts | 313° |
| 2026-02-17 15:13 | 45.59519 | 24.15701 | 39648 ft | 456 kts | 313° |
| 2026-02-17 15:14 | 45.64171 | 24.09509 | 39657 ft | 456 kts | 313° |
| 2026-02-17 15:14 | 45.69556 | 24.02322 | 39656 ft | 456 kts | 313° |
| 2026-02-17 15:15 | 45.75732 | 23.94053 | 39611 ft | 456 kts | 313° |
| 2026-02-17 15:15 | 45.80360 | 23.87841 | 39621 ft | 456 kts | 313° |
| 2026-02-17 15:16 | 45.84991 | 23.81608 | 39633 ft | 456 kts | 313° |
| 2026-02-17 15:16 | 45.89590 | 23.75404 | 39650 ft | 456 kts | 313° |
| 2026-02-17 15:17 | 45.94205 | 23.69165 | 39669 ft | 456 kts | 313° |
| 2026-02-17 15:17 | 45.98823 | 23.62906 | 39682 ft | 455 kts | 313° |
| 2026-02-17 15:18 | 46.03409 | 23.56675 | 39685 ft | 456 kts | 313° |
| 2026-02-17 15:19 | 46.10319 | 23.47260 | 39681 ft | 456 kts | 313° |
| 2026-02-17 15:19 | 46.14923 | 23.40968 | 39681 ft | 456 kts | 313° |
| 2026-02-17 15:20 | 46.19524 | 23.34663 | 39677 ft | 456 kts | 313° |
| 2026-02-17 15:20 | 46.24118 | 23.28353 | 39673 ft | 455 kts | 313° |
| 2026-02-17 15:21 | 46.28701 | 23.22044 | 39676 ft | 454 kts | 313° |
| 2026-02-17 15:21 | 46.33282 | 23.15720 | 39671 ft | 454 kts | 313° |
| 2026-02-17 15:22 | 46.37830 | 23.09427 | 39674 ft | 455 kts | 313° |
| 2026-02-17 15:22 | 46.42395 | 23.03097 | 39670 ft | 454 kts | 313° |
| 2026-02-17 15:23 | 46.49250 | 22.93560 | 39671 ft | 454 kts | 313° |
| 2026-02-17 15:23 | 46.53788 | 22.87228 | 39673 ft | 454 kts | 313° |
| 2026-02-17 15:24 | 46.58344 | 22.80855 | 39672 ft | 454 kts | 313° |
| 2026-02-17 15:24 | 46.62904 | 22.74462 | 39677 ft | 454 kts | 313° |
| 2026-02-17 15:25 | 46.67443 | 22.68081 | 39677 ft | 454 kts | 313° |
| 2026-02-17 15:25 | 46.71955 | 22.61722 | 39684 ft | 453 kts | 313° |
| 2026-02-17 15:26 | 46.76486 | 22.55322 | 39683 ft | 453 kts | 313° |
| 2026-02-17 15:27 | 46.83275 | 22.45702 | 39692 ft | 453 kts | 313° |
| 2026-02-17 15:27 | 46.87784 | 22.39293 | 39686 ft | 453 kts | 312° |
| 2026-02-17 15:28 | 46.92297 | 22.32862 | 39686 ft | 453 kts | 312° |
| 2026-02-17 15:28 | 46.96813 | 22.26411 | 39690 ft | 453 kts | 312° |
| 2026-02-17 15:29 | 47.01315 | 22.19964 | 39688 ft | 453 kts | 312° |
| 2026-02-17 15:29 | 47.05817 | 22.13501 | 39690 ft | 452 kts | 312° |
| 2026-02-17 15:30 | 47.10277 | 22.07082 | 39695 ft | 452 kts | 312° |
| 2026-02-17 15:30 | 47.14760 | 22.00614 | 39695 ft | 452 kts | 312° |
| 2026-02-17 15:31 | 47.21488 | 21.90877 | 39696 ft | 452 kts | 312° |
| 2026-02-17 15:31 | 47.25984 | 21.84419 | 39697 ft | 452 kts | 314° |
| 2026-02-17 15:32 | 47.30577 | 21.78189 | 39695 ft | 452 kts | 315° |
| 2026-02-17 15:32 | 47.35242 | 21.71962 | 39693 ft | 452 kts | 315° |
| 2026-02-17 15:33 | 47.39901 | 21.65704 | 39693 ft | 452 kts | 315° |
| 2026-02-17 15:33 | 47.44507 | 21.59474 | 39691 ft | 451 kts | 314° |
| 2026-02-17 15:34 | 47.49122 | 21.53203 | 39706 ft | 451 kts | 314° |
| 2026-02-17 15:35 | 47.56051 | 21.43757 | 39708 ft | 451 kts | 314° |
| 2026-02-17 15:35 | 47.60669 | 21.37443 | 39711 ft | 451 kts | 314° |
| 2026-02-17 15:36 | 47.65268 | 21.31142 | 39708 ft | 449 kts | 314° |
| 2026-02-17 15:36 | 47.69853 | 21.24843 | 39708 ft | 449 kts | 314° |
| 2026-02-17 15:37 | 47.74397 | 21.18584 | 39707 ft | 449 kts | 314° |
| 2026-02-17 15:37 | 47.78988 | 21.12243 | 39716 ft | 449 kts | 314° |
| 2026-02-17 15:38 | 47.83570 | 21.05900 | 39714 ft | 450 kts | 314° |
| 2026-02-17 15:38 | 47.88122 | 20.99583 | 39698 ft | 450 kts | 314° |
| 2026-02-17 15:39 | 47.94968 | 20.90053 | 39705 ft | 449 kts | 314° |
| 2026-02-17 15:39 | 47.99532 | 20.83678 | 39700 ft | 449 kts | 314° |
| 2026-02-17 15:40 | 48.04092 | 20.77294 | 39702 ft | 448 kts | 314° |
| 2026-02-17 15:40 | 48.08646 | 20.70904 | 39717 ft | 447 kts | 314° |
| 2026-02-17 15:41 | 48.13181 | 20.64521 | 39702 ft | 448 kts | 314° |
| 2026-02-17 15:41 | 48.17692 | 20.58156 | 39698 ft | 448 kts | 314° |
| 2026-02-17 15:42 | 48.22225 | 20.51744 | 39705 ft | 448 kts | 314° |
| 2026-02-17 15:43 | 48.29010 | 20.42117 | 39694 ft | 447 kts | 314° |
| 2026-02-17 15:43 | 48.33177 | 20.35265 | 39694 ft | 443 kts | 303° |
| 2026-02-17 15:44 | 48.36671 | 20.27636 | 39692 ft | 442 kts | 301° |
| 2026-02-17 15:44 | 48.40005 | 20.19929 | 39710 ft | 442 kts | 301° |
| 2026-02-17 15:45 | 48.43336 | 20.12143 | 39692 ft | 442 kts | 301° |
| 2026-02-17 15:45 | 48.46666 | 20.04371 | 39694 ft | 441 kts | 301° |
| 2026-02-17 15:46 | 48.49997 | 19.96604 | 39691 ft | 441 kts | 301° |
| 2026-02-17 15:46 | 48.53326 | 19.88826 | 39691 ft | 441 kts | 301° |
| 2026-02-17 15:47 | 48.58289 | 19.77188 | 39703 ft | 440 kts | 301° |
| 2026-02-17 15:47 | 48.61592 | 19.69414 | 39702 ft | 439 kts | 301° |
| 2026-02-17 15:48 | 48.64899 | 19.61606 | 39708 ft | 439 kts | 301° |
| 2026-02-17 15:48 | 48.68170 | 19.53863 | 39708 ft | 439 kts | 301° |
| 2026-02-17 15:49 | 48.71453 | 19.46066 | 39719 ft | 439 kts | 301° |
| 2026-02-17 15:49 | 48.74733 | 19.38257 | 39719 ft | 438 kts | 301° |
| 2026-02-17 15:50 | 48.77994 | 19.30469 | 39732 ft | 438 kts | 301° |
| 2026-02-17 15:51 | 48.82890 | 19.18733 | 39740 ft | 439 kts | 301° |
| 2026-02-17 15:51 | 48.86127 | 19.10944 | 39740 ft | 439 kts | 301° |
| 2026-02-17 15:52 | 48.89379 | 19.03098 | 39752 ft | 437 kts | 301° |
| 2026-02-17 15:52 | 48.92605 | 18.95292 | 39753 ft | 436 kts | 301° |
| 2026-02-17 15:53 | 48.95812 | 18.87509 | 39761 ft | 436 kts | 301° |
| 2026-02-17 15:53 | 48.99031 | 18.79673 | 39759 ft | 436 kts | 301° |
| 2026-02-17 15:54 | 49.02246 | 18.71826 | 39766 ft | 435 kts | 301° |
| 2026-02-17 15:54 | 49.07025 | 18.60116 | 39774 ft | 435 kts | 301° |
| 2026-02-17 15:55 | 49.10215 | 18.52271 | 39773 ft | 435 kts | 301° |
| 2026-02-17 15:55 | 49.13399 | 18.44417 | 39776 ft | 435 kts | 301° |
| 2026-02-17 15:56 | 49.16575 | 18.36561 | 39775 ft | 434 kts | 301° |
| 2026-02-17 15:56 | 49.19739 | 18.28709 | 39778 ft | 434 kts | 301° |
| 2026-02-17 15:57 | 49.22903 | 18.20837 | 39788 ft | 434 kts | 301° |
| 2026-02-17 15:57 | 49.26150 | 18.13123 | 39788 ft | 434 kts | 304° |
| 2026-02-17 15:58 | 49.29701 | 18.05645 | 39777 ft | 434 kts | 306° |
| 2026-02-17 15:59 | 49.35100 | 17.94475 | 39792 ft | 432 kts | 305° |
| 2026-02-17 15:59 | 49.38636 | 17.87035 | 39775 ft | 432 kts | 305° |
| 2026-02-17 16:00 | 49.42164 | 17.79551 | 39789 ft | 432 kts | 305° |
| 2026-02-17 16:00 | 49.45654 | 17.72117 | 39790 ft | 432 kts | 305° |
| 2026-02-17 16:01 | 49.49172 | 17.64609 | 39773 ft | 431 kts | 305° |
| 2026-02-17 16:01 | 49.52675 | 17.57112 | 39778 ft | 432 kts | 305° |
| 2026-02-17 16:02 | 49.56181 | 17.49589 | 39780 ft | 432 kts | 304° |
| 2026-02-17 16:02 | 49.61413 | 17.38323 | 39786 ft | 433 kts | 304° |
| 2026-02-17 16:03 | 49.64921 | 17.30743 | 39780 ft | 433 kts | 305° |
| 2026-02-17 16:03 | 49.68407 | 17.23188 | 39781 ft | 431 kts | 304° |
| 2026-02-17 16:04 | 49.71864 | 17.15675 | 39779 ft | 431 kts | 304° |
| 2026-02-17 16:04 | 49.75337 | 17.08106 | 39780 ft | 431 kts | 304° |
| 2026-02-17 16:05 | 49.78803 | 17.00530 | 39782 ft | 431 kts | 304° |
| 2026-02-17 16:05 | 49.81689 | 16.94206 | 39782 ft | 431 kts | 304° |
| 2026-02-17 16:06 | 49.85145 | 16.86611 | 39779 ft | 430 kts | 304° |
| 2026-02-17 16:07 | 49.90312 | 16.75218 | 39788 ft | 430 kts | 304° |
| 2026-02-17 16:07 | 49.93746 | 16.67617 | 39786 ft | 430 kts | 304° |
| 2026-02-17 16:08 | 49.97160 | 16.60040 | 39774 ft | 430 kts | 304° |
| 2026-02-17 16:08 | 50.02298 | 16.48587 | 39779 ft | 429 kts | 304° |
| 2026-02-17 16:09 | 50.05692 | 16.40955 | 39781 ft | 429 kts | 304° |
| 2026-02-17 16:09 | 50.09066 | 16.33336 | 39780 ft | 429 kts | 304° |
| 2026-02-17 16:10 | 50.12451 | 16.25671 | 39786 ft | 429 kts | 304° |
| 2026-02-17 16:11 | 50.17517 | 16.14164 | 39783 ft | 428 kts | 304° |
| 2026-02-17 16:11 | 50.20878 | 16.06503 | 39784 ft | 427 kts | 304° |
| 2026-02-17 16:12 | 50.24229 | 15.98840 | 39791 ft | 427 kts | 304° |
| 2026-02-17 16:12 | 50.27579 | 15.91159 | 39792 ft | 428 kts | 304° |
| 2026-02-17 16:13 | 50.30913 | 15.83493 | 39782 ft | 428 kts | 304° |
| 2026-02-17 16:13 | 50.34256 | 15.75783 | 39787 ft | 427 kts | 304° |
| 2026-02-17 16:14 | 50.37577 | 15.68101 | 39782 ft | 426 kts | 304° |
| 2026-02-17 16:14 | 50.42558 | 15.56538 | 39782 ft | 426 kts | 304° |
| 2026-02-17 16:15 | 50.45843 | 15.48881 | 39781 ft | 426 kts | 303° |
| 2026-02-17 16:15 | 50.49153 | 15.41147 | 39775 ft | 425 kts | 303° |
| 2026-02-17 16:16 | 50.52444 | 15.33432 | 39777 ft | 424 kts | 303° |
| 2026-02-17 16:16 | 50.55700 | 15.25778 | 39791 ft | 424 kts | 303° |
| 2026-02-17 16:17 | 50.58976 | 15.18055 | 39782 ft | 424 kts | 303° |
| 2026-02-17 16:17 | 50.62255 | 15.10301 | 39780 ft | 426 kts | 303° |
| 2026-02-17 16:18 | 50.65530 | 15.02533 | 39778 ft | 425 kts | 303° |
| 2026-02-17 16:19 | 50.70420 | 14.90894 | 39777 ft | 424 kts | 303° |